Main page
METAR-TAF:

METAR-TAF

Airports :

Oberpfaffenhofen, Germany

latitude: 48-05N, longitude: 011-17E, elevation: 600 m

Current weather observation

The report was made 19 minutes ago, at 18:50 UTC
Wind 5 kt from the South/Southwest
Temperature 5°C
Humidity 93%
Pressure 1031 hPa
Visibility 10 km or more
no clouds below 1500 m and no cumulonimbus

METAR: EDMO 131850Z 21005KT CAVOK 05/04 Q1031

Time: 20:09 (19:09 UTC)

Forecast

The report was made 2 hours and 9 minutes ago, at 17:00 UTC
Forecast valid from 13 at 18 UTC to 14 at 03 UTC
Wind 5 kt from the Southwest
Visibility 10 km or more
Scattered clouds at a height of 3000 ft
Becoming
from 13 at 19 UTC to 13 at 21 UTC
Wind 3 kt from variable directions
Becoming
from 13 at 21 UTC to 13 at 24 UTC
Visibility: 1200 m
patches of fog

TAF: EDMO 131700Z 1318/1403 23005KT 9999 SCT030 BECMG 1319/1321 VRB03KT BECMG 1321/1324 1200 BCFG

Weather observations and forecasts of more than 4000 airports (METAR and TAF reports).

The available stations are represented by yellow and red dots on the map.

Hover mouse over dot to see the name of the station.

Then click to see weather observations and forecasts.

To change the map : click on the green buttons with a black cross to zoom in, on the green button with a dash to zoom out, or on the green arrows for adjacent maps.


METAR-TAF: